sensor_id;sensor_type;location;lat;lon;timestamp;pressure;altitude;pressure_sealevel;temperature;humidity
37132;BME280;23035;50.032;21.978;2023-11-19T00:03:11;65286.84;;;1.12;100.00
37132;BME280;23035;50.032;21.978;2023-11-19T00:08:16;65355.00;;;1.77;100.00
37132;BME280;23035;50.032;21.978;2023-11-19T00:13:25;65411.78;;;2.26;100.00
37132;BME280;23035;50.032;21.978;2023-11-19T00:18:30;65455.75;;;2.76;100.00
37132;BME280;23035;50.032;21.978;2023-11-19T00:23:35;65513.22;;;3.28;100.00
37132;BME280;23035;50.032;21.978;2023-11-19T00:28:41;65401.22;;;2.19;100.00
37132;BME280;23035;50.032;21.978;2023-11-19T00:33:46;65369.91;;;1.91;100.00
37132;BME280;23035;50.032;21.978;2023-11-19T00:38:52;65309.09;;;1.31;100.00
37132;BME280;23035;50.032;21.978;2023-11-19T00:44:02;65361.38;;;1.83;100.00
37132;BME280;23035;50.032;21.978;2023-11-19T00:49:07;65340.50;;;1.61;100.00
37132;BME280;23035;50.032;21.978;2023-11-19T00:54:14;65263.88;;;0.88;100.00
37132;BME280;23035;50.032;21.978;2023-11-19T00:59:20;65313.03;;;1.39;100.00
37132;BME280;23035;50.032;21.978;2023-11-19T01:04:25;65349.66;;;1.72;100.00
37132;BME280;23035;50.032;21.978;2023-11-19T01:09:29;65396.53;;;2.17;100.00
37132;BME280;23035;50.032;21.978;2023-11-19T01:14:36;65507.78;;;3.21;100.00
37132;BME280;23035;50.032;21.978;2023-11-19T01:19:41;65505.66;;;3.19;100.00
37132;BME280;23035;50.032;21.978;2023-11-19T01:24:46;65425.09;;;2.39;100.00
37132;BME280;23035;50.032;21.978;2023-11-19T01:29:51;65408.03;;;2.23;100.00
37132;BME280;23035;50.032;21.978;2023-11-19T01:34:57;65325.81;;;1.52;100.00
37132;BME280;23035;50.032;21.978;2023-11-19T01:40:03;65270.25;;;0.94;100.00
37132;BME280;23035;50.032;21.978;2023-11-19T01:45:22;65278.88;;;1.04;100.00
37132;BME280;23035;50.032;21.978;2023-11-19T01:50:31;65282.59;;;1.08;100.00
37132;BME280;23035;50.032;21.978;2023-11-19T01:55:35;65441.78;;;2.60;100.00
37132;BME280;23035;50.032;21.978;2023-11-19T02:00:41;65448.72;;;2.67;100.00
37132;BME280;23035;50.032;21.978;2023-11-19T02:05:48;65356.91;;;1.74;100.00
37132;BME280;23035;50.032;21.978;2023-11-19T02:10:53;65447.03;;;2.63;100.00
37132;BME280;23035;50.032;21.978;2023-11-19T02:16:01;65374.25;;;1.98;100.00
37132;BME280;23035;50.032;21.978;2023-11-19T02:21:06;65475.47;;;2.95;100.00
37132;BME280;23035;50.032;21.978;2023-11-19T02:26:14;65530.69;;;3.42;100.00
37132;BME280;23035;50.032;21.978;2023-11-19T02:31:25;65552.13;;;3.65;100.00
37132;BME280;23035;50.032;21.978;2023-11-19T02:36:30;65560.25;;;3.76;100.00
37132;BME280;23035;50.032;21.978;2023-11-19T02:41:36;65585.13;;;3.94;100.00
37132;BME280;23035;50.032;21.978;2023-11-19T02:46:44;65561.84;;;3.77;100.00
37132;BME280;23035;50.032;21.978;2023-11-19T02:51:51;65489.22;;;3.05;100.00
37132;BME280;23035;50.032;21.978;2023-11-19T02:56:56;65486.91;;;2.98;100.00
37132;BME280;23035;50.032;21.978;2023-11-19T03:02:04;65539.97;;;3.56;100.00
37132;BME280;23035;50.032;21.978;2023-11-19T03:07:09;65606.53;;;4.17;100.00
37132;BME280;23035;50.032;21.978;2023-11-19T03:12:15;65605.38;;;4.14;100.00
37132;BME280;23035;50.032;21.978;2023-11-19T03:17:20;65566.09;;;3.81;100.00
37132;BME280;23035;50.032;21.978;2023-11-19T03:22:28;65571.34;;;3.84;100.00
37132;BME280;23035;50.032;21.978;2023-11-19T03:27:33;65652.00;;;4.63;100.00
37132;BME280;23035;50.032;21.978;2023-11-19T03:32:40;65640.25;;;4.52;100.00
37132;BME280;23035;50.032;21.978;2023-11-19T03:37:46;65576.56;;;3.86;100.00
37132;BME280;23035;50.032;21.978;2023-11-19T03:42:50;65582.97;;;3.92;100.00
37132;BME280;23035;50.032;21.978;2023-11-19T03:47:57;65508.13;;;3.16;100.00
37132;BME280;23035;50.032;21.978;2023-11-19T03:53:02;65625.31;;;4.38;100.00
37132;BME280;23035;50.032;21.978;2023-11-19T03:58:07;65610.72;;;4.19;100.00
37132;BME280;23035;50.032;21.978;2023-11-19T04:03:17;65630.66;;;4.43;100.00
37132;BME280;23035;50.032;21.978;2023-11-19T04:08:22;65583.50;;;3.93;100.00
37132;BME280;23035;50.032;21.978;2023-11-19T04:13:26;65560.66;;;3.73;100.00
37132;BME280;23035;50.032;21.978;2023-11-19T04:18:32;65508.53;;;3.26;100.00
37132;BME280;23035;50.032;21.978;2023-11-19T04:23:37;65590.09;;;4.04;100.00
37132;BME280;23035;50.032;21.978;2023-11-19T04:28:41;65639.00;;;4.46;100.00
37132;BME280;23035;50.032;21.978;2023-11-19T04:33:47;65628.41;;;4.38;100.00
37132;BME280;23035;50.032;21.978;2023-11-19T04:38:51;65553.22;;;3.66;100.00
37132;BME280;23035;50.032;21.978;2023-11-19T04:43:56;65587.97;;;4.02;100.00
37132;BME280;23035;50.032;21.978;2023-11-19T04:49:01;65612.59;;;4.28;100.00
37132;BME280;23035;50.032;21.978;2023-11-19T04:54:08;65666.31;;;4.74;100.00
37132;BME280;23035;50.032;21.978;2023-11-19T04:59:13;65527.72;;;3.44;100.00
37132;BME280;23035;50.032;21.978;2023-11-19T05:04:18;65327.75;;;1.49;100.00
37132;BME280;23035;50.032;21.978;2023-11-19T05:09:23;65309.19;;;1.33;100.00
37132;BME280;23035;50.032;21.978;2023-11-19T05:14:27;65466.94;;;2.86;100.00
37132;BME280;23035;50.032;21.978;2023-11-19T05:19:34;65529.84;;;3.47;100.00
37132;BME280;23035;50.032;21.978;2023-11-19T05:24:38;65539.97;;;3.56;100.00
37132;BME280;23035;50.032;21.978;2023-11-19T05:29:43;65591.59;;;4.03;100.00
37132;BME280;23035;50.032;21.978;2023-11-19T05:34:51;65584.66;;;3.96;100.00
37132;BME280;23035;50.032;21.978;2023-11-19T05:39:56;65487.34;;;2.96;100.00
37132;BME280;23035;50.032;21.978;2023-11-19T05:45:03;65405.91;;;2.21;100.00
37132;BME280;23035;50.032;21.978;2023-11-19T05:50:10;65357.66;;;1.80;100.00
37132;BME280;23035;50.032;21.978;2023-11-19T05:55:15;65432.09;;;2.48;100.00
37132;BME280;23035;50.032;21.978;2023-11-19T06:00:19;65383.63;;;2.02;100.00
37132;BME280;23035;50.032;21.978;2023-11-19T06:05:25;65321.97;;;1.46;100.00
37132;BME280;23035;50.032;21.978;2023-11-19T06:10:29;65462.56;;;2.80;100.00
37132;BME280;23035;50.032;21.978;2023-11-19T06:15:34;65461.94;;;2.77;100.00
37132;BME280;23035;50.032;21.978;2023-11-19T06:20:40;65431.25;;;2.52;100.00
37132;BME280;23035;50.032;21.978;2023-11-19T06:25:46;65450.84;;;2.69;100.00
37132;BME280;23035;50.032;21.978;2023-11-19T06:30:50;65432.84;;;2.54;100.00
37132;BME280;23035;50.032;21.978;2023-11-19T06:35:56;65403.97;;;2.24;100.00
37132;BME280;23035;50.032;21.978;2023-11-19T06:41:00;65376.38;;;2.00;100.00
37132;BME280;23035;50.032;21.978;2023-11-19T06:46:05;65408.34;;;2.30;100.00
37132;BME280;23035;50.032;21.978;2023-11-19T06:51:11;65587.25;;;3.96;100.00
37132;BME280;23035;50.032;21.978;2023-11-19T06:56:20;65448.81;;;2.69;100.00
37132;BME280;23035;50.032;21.978;2023-11-19T07:01:25;65453.63;;;2.74;100.00
37132;BME280;23035;50.032;21.978;2023-11-19T07:06:31;65479.63;;;2.96;100.00
37132;BME280;23035;50.032;21.978;2023-11-19T07:11:37;65454.69;;;2.75;100.00
37132;BME280;23035;50.032;21.978;2023-11-19T07:16:42;65411.44;;;2.31;100.00
37132;BME280;23035;50.032;21.978;2023-11-19T07:21:48;65584.13;;;3.96;100.00
37132;BME280;23035;50.032;21.978;2023-11-19T07:26:54;65641.88;;;4.53;100.00
37132;BME280;23035;50.032;21.978;2023-11-19T07:31:59;65589.03;;;4.03;100.00
37132;BME280;23035;50.032;21.978;2023-11-19T07:37:06;65614.63;;;4.27;100.00
37132;BME280;23035;50.032;21.978;2023-11-19T07:42:10;65666.94;;;4.77;100.00
37132;BME280;23035;50.032;21.978;2023-11-19T07:47:15;65671.19;;;4.81;100.00
37132;BME280;23035;50.032;21.978;2023-11-19T07:52:21;65671.09;;;4.79;100.00
37132;BME280;23035;50.032;21.978;2023-11-19T07:57:25;65649.75;;;4.58;100.00
37132;BME280;23035;50.032;21.978;2023-11-19T08:02:33;65678.50;;;4.83;100.00
37132;BME280;23035;50.032;21.978;2023-11-19T08:07:39;65654.13;;;4.65;100.00
37132;BME280;23035;50.032;21.978;2023-11-19T08:12:43;65561.63;;;3.72;100.00
37132;BME280;23035;50.032;21.978;2023-11-19T08:17:47;65526.63;;;3.43;100.00
37132;BME280;23035;50.032;21.978;2023-11-19T08:22:53;65543.69;;;3.60;100.00
37132;BME280;23035;50.032;21.978;2023-11-19T08:27:57;65652.00;;;4.63;100.00
37132;BME280;23035;50.032;21.978;2023-11-19T08:33:02;65594.47;;;4.11;100.00
37132;BME280;23035;50.032;21.978;2023-11-19T08:38:10;65627.88;;;4.38;100.00
37132;BME280;23035;50.032;21.978;2023-11-19T08:43:15;65485.78;;;3.09;100.00
37132;BME280;23035;50.032;21.978;2023-11-19T08:48:29;65518.44;;;3.31;100.00
37132;BME280;23035;50.032;21.978;2023-11-19T08:53:45;65489.22;;;3.05;100.00
37132;BME280;23035;50.032;21.978;2023-11-19T08:58:50;65578.34;;;3.93;100.00
37132;BME280;23035;50.032;21.978;2023-11-19T09:03:55;65400.78;;;2.21;100.00
37132;BME280;23035;50.032;21.978;2023-11-19T09:09:04;65409.22;;;2.26;100.00
37132;BME280;23035;50.032;21.978;2023-11-19T09:14:09;65429.97;;;2.46;100.00
37132;BME280;23035;50.032;21.978;2023-11-19T09:19:14;65369.91;;;1.91;100.00
37132;BME280;23035;50.032;21.978;2023-11-19T09:24:20;65399.09;;;2.17;100.00
37132;BME280;23035;50.032;21.978;2023-11-19T09:29:24;65551.69;;;3.67;100.00
37132;BME280;23035;50.032;21.978;2023-11-19T09:34:29;65599.16;;;4.13;100.00
37132;BME280;23035;50.032;21.978;2023-11-19T09:39:36;65686.50;;;4.91;100.00
37132;BME280;23035;50.032;21.978;2023-11-19T09:44:42;65683.91;;;4.91;100.00
37132;BME280;23035;50.032;21.978;2023-11-19T09:49:49;65630.22;;;4.45;100.00
37132;BME280;23035;50.032;21.978;2023-11-19T09:54:55;65664.28;;;4.75;100.00
37132;BME280;23035;50.032;21.978;2023-11-19T10:00:01;65637.81;;;4.42;100.00
37132;BME280;23035;50.032;21.978;2023-11-19T10:05:08;65574.09;;;3.89;100.00
37132;BME280;23035;50.032;21.978;2023-11-19T10:10:15;65666.31;;;4.74;100.00
37132;BME280;23035;50.032;21.978;2023-11-19T10:15:23;65680.72;;;4.88;100.00
37132;BME280;23035;50.032;21.978;2023-11-19T10:20:35;65682.97;;;4.93;100.00
37132;BME280;23035;50.032;21.978;2023-11-19T10:25:41;65733.56;;;5.38;100.00
37132;BME280;23035;50.032;21.978;2023-11-19T10:30:48;65749.59;;;5.54;100.00
37132;BME280;23035;50.032;21.978;2023-11-19T10:35:53;65715.00;;;5.23;100.00
37132;BME280;23035;50.032;21.978;2023-11-19T10:41:04;65759.31;;;5.65;100.00
37132;BME280;23035;50.032;21.978;2023-11-19T10:46:10;65703.66;;;5.10;100.00
37132;BME280;23035;50.032;21.978;2023-11-19T10:51:19;65800.47;;;6.04;100.00
37132;BME280;23035;50.032;21.978;2023-11-19T10:56:29;65826.56;;;6.27;100.00
37132;BME280;23035;50.032;21.978;2023-11-19T11:01:39;65814.88;;;6.18;100.00
37132;BME280;23035;50.032;21.978;2023-11-19T11:06:47;65748.53;;;5.53;100.00
37132;BME280;23035;50.032;21.978;2023-11-19T11:11:54;65805.81;;;6.10;100.00
37132;BME280;23035;50.032;21.978;2023-11-19T11:17:00;65905.84;;;7.07;100.00
37132;BME280;23035;50.032;21.978;2023-11-19T11:22:09;65867.47;;;6.73;100.00
37132;BME280;23035;50.032;21.978;2023-11-19T11:27:38;65832.97;;;6.33;100.00
37132;BME280;23035;50.032;21.978;2023-11-19T11:32:53;65789.25;;;5.94;100.00
37132;BME280;23035;50.032;21.978;2023-11-19T11:38:04;65826.66;;;6.29;100.00
37132;BME280;23035;50.032;21.978;2023-11-19T11:48:48;65737.94;;;5.45;100.00
37132;BME280;23035;50.032;21.978;2023-11-19T11:53:54;65815.88;;;6.17;100.00
37132;BME280;23035;50.032;21.978;2023-11-19T11:59:02;65838.84;;;6.39;100.00
37132;BME280;23035;50.032;21.978;2023-11-19T12:04:09;65823.88;;;6.24;100.00
37132;BME280;23035;50.032;21.978;2023-11-19T12:09:14;65804.03;;;6.03;100.00
37132;BME280;23035;50.032;21.978;2023-11-19T12:20:05;65753.97;;;5.60;100.00
37132;BME280;23035;50.032;21.978;2023-11-19T12:25:12;65773.56;;;5.74;100.00
37132;BME280;23035;50.032;21.978;2023-11-19T12:30:17;65797.81;;;6.02;100.00
37132;BME280;23035;50.032;21.978;2023-11-19T12:35:23;65850.09;;;6.49;100.00
37132;BME280;23035;50.032;21.978;2023-11-19T12:40:27;65866.03;;;6.62;100.00
37132;BME280;23035;50.032;21.978;2023-11-19T12:45:34;65773.72;;;5.79;100.00
37132;BME280;23035;50.032;21.978;2023-11-19T12:50:51;65829.88;;;6.32;100.00
37132;BME280;23035;50.032;21.978;2023-11-19T12:56:07;65842.59;;;6.42;100.00
37132;BME280;23035;50.032;21.978;2023-11-19T13:01:16;65745.97;;;5.53;100.00
37132;BME280;23035;50.032;21.978;2023-11-19T13:06:23;65686.69;;;4.96;100.00
37132;BME280;23035;50.032;21.978;2023-11-19T13:11:31;65720.84;;;5.29;100.00
37132;BME280;23035;50.032;21.978;2023-11-19T13:16:37;65710.72;;;5.19;100.00
37132;BME280;23035;50.032;21.978;2023-11-19T13:21:44;65733.13;;;5.40;100.00
37132;BME280;23035;50.032;21.978;2023-11-19T13:26:50;65743.28;;;5.50;100.00
37132;BME280;23035;50.032;21.978;2023-11-19T13:31:55;65764.66;;;5.70;100.00
37132;BME280;23035;50.032;21.978;2023-11-19T13:37:01;65804.72;;;6.09;100.00
37132;BME280;23035;50.032;21.978;2023-11-19T13:42:06;65769.66;;;5.80;100.00
37132;BME280;23035;50.032;21.978;2023-11-19T13:47:13;65758.78;;;5.65;100.00
37132;BME280;23035;50.032;21.978;2023-11-19T13:52:19;65734.75;;;5.42;100.00
37132;BME280;23035;50.032;21.978;2023-11-19T13:57:23;65654.66;;;4.66;100.00
37132;BME280;23035;50.032;21.978;2023-11-19T14:02:28;65689.78;;;4.97;100.00
37132;BME280;23035;50.032;21.978;2023-11-19T14:07:34;65677.16;;;4.89;100.00
37132;BME280;23035;50.032;21.978;2023-11-19T14:12:39;65483.91;;;3.00;100.00
37132;BME280;23035;50.032;21.978;2023-11-19T14:17:44;65416.22;;;2.36;100.00
37132;BME280;23035;50.032;21.978;2023-11-19T14:22:50;65448.53;;;2.62;100.00
37132;BME280;23035;50.032;21.978;2023-11-19T14:27:55;65415.06;;;2.32;100.00
37132;BME280;23035;50.032;21.978;2023-11-19T14:33:00;65520.56;;;3.33;100.00
37132;BME280;23035;50.032;21.978;2023-11-19T14:38:06;65371.38;;;1.90;100.00
37132;BME280;23035;50.032;21.978;2023-11-19T14:43:13;65398.66;;;2.19;100.00
37132;BME280;23035;50.032;21.978;2023-11-19T14:48:18;65492.00;;;3.10;100.00
37132;BME280;23035;50.032;21.978;2023-11-19T14:53:24;65414.53;;;2.32;100.00
37132;BME280;23035;50.032;21.978;2023-11-19T14:58:29;65432.31;;;2.53;100.00
37132;BME280;23035;50.032;21.978;2023-11-19T15:03:34;65472.81;;;2.92;100.00
37132;BME280;23035;50.032;21.978;2023-11-19T15:08:58;65545.81;;;3.62;100.00
37132;BME280;23035;50.032;21.978;2023-11-19T15:14:03;65509.59;;;3.27;100.00
37132;BME280;23035;50.032;21.978;2023-11-19T15:19:09;65512.69;;;3.28;100.00
37132;BME280;23035;50.032;21.978;2023-11-19T15:24:17;65542.19;;;3.61;100.00
37132;BME280;23035;50.032;21.978;2023-11-19T15:29:21;65543.78;;;3.62;100.00
37132;BME280;23035;50.032;21.978;2023-11-19T15:34:27;65569.84;;;3.85;100.00
37132;BME280;23035;50.032;21.978;2023-11-19T15:39:33;65575.06;;;3.87;100.00
37132;BME280;23035;50.032;21.978;2023-11-19T15:44:39;65593.41;;;4.10;100.00
37132;BME280;23035;50.032;21.978;2023-11-19T15:49:43;65623.19;;;4.36;100.00
37132;BME280;23035;50.032;21.978;2023-11-19T15:54:50;65493.06;;;3.11;100.00
37132;BME280;23035;50.032;21.978;2023-11-19T15:59:55;65490.81;;;3.07;100.00
37132;BME280;23035;50.032;21.978;2023-11-19T16:04:59;65431.03;;;2.47;100.00
37132;BME280;23035;50.032;21.978;2023-11-19T16:10:06;65430.19;;;2.51;100.00
37132;BME280;23035;50.032;21.978;2023-11-19T16:15:12;65396.53;;;2.17;100.00
37132;BME280;23035;50.032;21.978;2023-11-19T16:20:37;65411.88;;;2.29;100.00
37132;BME280;23035;50.032;21.978;2023-11-19T16:25:43;65416.78;;;2.36;100.00
37132;BME280;23035;50.032;21.978;2023-11-19T16:30:47;65394.81;;;2.13;100.00
37132;BME280;23035;50.032;21.978;2023-11-19T16:35:55;65369.47;;;1.93;100.00
37132;BME280;23035;50.032;21.978;2023-11-19T16:41:03;65406.53;;;2.24;100.00
37132;BME280;23035;50.032;21.978;2023-11-19T16:46:08;65479.63;;;2.96;100.00
37132;BME280;23035;50.032;21.978;2023-11-19T16:51:13;65536.13;;;3.50;100.00
37132;BME280;23035;50.032;21.978;2023-11-19T16:56:19;65467.03;;;2.89;100.00
37132;BME280;23035;50.032;21.978;2023-11-19T17:01:23;65403.97;;;2.24;100.00
37132;BME280;23035;50.032;21.978;2023-11-19T17:06:28;65490.28;;;3.06;100.00
37132;BME280;23035;50.032;21.978;2023-11-19T17:11:34;65486.03;;;3.02;100.00
37132;BME280;23035;50.032;21.978;2023-11-19T17:16:38;65490.94;;;3.09;100.00
37132;BME280;23035;50.032;21.978;2023-11-19T17:21:43;65487.53;;;3.01;100.00
37132;BME280;23035;50.032;21.978;2023-11-19T17:26:49;65475.56;;;2.97;100.00
37132;BME280;23035;50.032;21.978;2023-11-19T17:31:53;65412.59;;;2.35;100.00
37132;BME280;23035;50.032;21.978;2023-11-19T17:36:57;65436.38;;;2.52;100.00
37132;BME280;23035;50.032;21.978;2023-11-19T17:42:04;65490.72;;;3.04;100.00
37132;BME280;23035;50.032;21.978;2023-11-19T17:47:08;65514.81;;;3.30;100.00
37132;BME280;23035;50.032;21.978;2023-11-19T17:52:13;65508.00;;;3.26;100.00
37132;BME280;23035;50.032;21.978;2023-11-19T17:57:25;65522.06;;;3.32;100.00
37132;BME280;23035;50.032;21.978;2023-11-19T18:02:30;65490.81;;;3.07;100.00
37132;BME280;23035;50.032;21.978;2023-11-19T18:07:37;65488.06;;;3.02;100.00
37132;BME280;23035;50.032;21.978;2023-11-19T18:12:45;65502.47;;;3.15;100.00
37132;BME280;23035;50.032;21.978;2023-11-19T18:17:50;65503.72;;;3.22;100.00
37132;BME280;23035;50.032;21.978;2023-11-19T18:22:55;65525.47;;;3.40;100.00
37132;BME280;23035;50.032;21.978;2023-11-19T18:28:03;65515.97;;;3.33;100.00
37132;BME280;23035;50.032;21.978;2023-11-19T18:33:11;65514.81;;;3.30;100.00
37132;BME280;23035;50.032;21.978;2023-11-19T18:38:19;65520.69;;;3.35;100.00
37132;BME280;23035;50.032;21.978;2023-11-19T18:43:25;65464.06;;;2.79;100.00
37132;BME280;23035;50.032;21.978;2023-11-19T18:48:30;65520.78;;;3.38;100.00
37132;BME280;23035;50.032;21.978;2023-11-19T18:53:35;65492.44;;;3.08;100.00
37132;BME280;23035;50.032;21.978;2023-11-19T18:58:43;65515.44;;;3.33;100.00
37132;BME280;23035;50.032;21.978;2023-11-19T19:03:48;65552.13;;;3.65;100.00
37132;BME280;23035;50.032;21.978;2023-11-19T19:08:53;65504.59;;;3.17;100.00
37132;BME280;23035;50.032;21.978;2023-11-19T19:13:59;65517.38;;;3.30;100.00
37132;BME280;23035;50.032;21.978;2023-11-19T19:19:06;65517.38;;;3.30;100.00
37132;BME280;23035;50.032;21.978;2023-11-19T19:24:13;65425.38;;;2.47;100.00
37132;BME280;23035;50.032;21.978;2023-11-19T19:29:21;65512.69;;;3.28;100.00
37132;BME280;23035;50.032;21.978;2023-11-19T19:34:28;65486.56;;;3.03;100.00
37132;BME280;23035;50.032;21.978;2023-11-19T19:39:32;65444.47;;;2.63;100.00
37132;BME280;23035;50.032;21.978;2023-11-19T19:44:38;65467.28;;;2.82;100.00
37132;BME280;23035;50.032;21.978;2023-11-19T19:49:43;65459.03;;;2.81;100.00
37132;BME280;23035;50.032;21.978;2023-11-19T19:54:48;65472.25;;;2.92;100.00
37132;BME280;23035;50.032;21.978;2023-11-19T19:59:55;65458.31;;;2.76;100.00
37132;BME280;23035;50.032;21.978;2023-11-19T20:05:00;65500.44;;;3.16;100.00
37132;BME280;23035;50.032;21.978;2023-11-19T20:10:11;65480.25;;;2.99;100.00
37132;BME280;23035;50.032;21.978;2023-11-19T20:15:17;65467.91;;;2.85;100.00
37132;BME280;23035;50.032;21.978;2023-11-19T20:20:25;65519.72;;;3.37;100.00
37132;BME280;23035;50.032;21.978;2023-11-19T20:25:30;65511.63;;;3.27;100.00
37132;BME280;23035;50.032;21.978;2023-11-19T20:30:38;65535.50;;;3.47;100.00
37132;BME280;23035;50.032;21.978;2023-11-19T20:35:43;65515.78;;;3.28;100.00
37132;BME280;23035;50.032;21.978;2023-11-19T20:40:48;65488.78;;;3.07;100.00
37132;BME280;23035;50.032;21.978;2023-11-19T20:45:54;65531.97;;;3.49;100.00
37132;BME280;23035;50.032;21.978;2023-11-19T20:51:03;65546.34;;;3.62;100.00
37132;BME280;23035;50.032;21.978;2023-11-19T20:56:08;65571.97;;;3.87;100.00
37132;BME280;23035;50.032;21.978;2023-11-19T21:01:14;65551.41;;;3.60;100.00
37132;BME280;23035;50.032;21.978;2023-11-19T21:06:19;65542.72;;;3.61;100.00
37132;BME280;23035;50.032;21.978;2023-11-19T21:11:24;65520.78;;;3.38;100.00
37132;BME280;23035;50.032;21.978;2023-11-19T21:16:31;65458.94;;;2.79;100.00
37132;BME280;23035;50.032;21.978;2023-11-19T21:21:35;65552.56;;;3.63;100.00
37132;BME280;23035;50.032;21.978;2023-11-19T21:26:41;65484.53;;;3.03;100.00
37132;BME280;23035;50.032;21.978;2023-11-19T21:31:47;65467.47;;;2.87;100.00
37132;BME280;23035;50.032;21.978;2023-11-19T21:36:55;65494.13;;;3.12;100.00
37132;BME280;23035;50.032;21.978;2023-11-19T21:41:59;65437.09;;;2.58;100.00
37132;BME280;23035;50.032;21.978;2023-11-19T21:47:05;65506.50;;;3.27;100.00
37132;BME280;23035;50.032;21.978;2023-11-19T21:52:12;65524.41;;;3.39;100.00
37132;BME280;23035;50.032;21.978;2023-11-19T21:57:16;65509.91;;;3.23;100.00
37132;BME280;23035;50.032;21.978;2023-11-19T22:02:22;65501.59;;;3.20;100.00
37132;BME280;23035;50.032;21.978;2023-11-19T22:07:27;65433.38;;;2.54;100.00
37132;BME280;23035;50.032;21.978;2023-11-19T22:12:32;65483.47;;;3.02;100.00
37132;BME280;23035;50.032;21.978;2023-11-19T22:17:38;65513.31;;;3.31;100.00
37132;BME280;23035;50.032;21.978;2023-11-19T22:22:42;65459.38;;;2.77;100.00
37132;BME280;23035;50.032;21.978;2023-11-19T22:27:48;65474.72;;;2.89;100.00
37132;BME280;23035;50.032;21.978;2023-11-19T22:32:54;65510.03;;;3.25;100.00
37132;BME280;23035;50.032;21.978;2023-11-19T22:37:58;65501.06;;;3.19;100.00
37132;BME280;23035;50.032;21.978;2023-11-19T22:43:02;65514.19;;;3.27;100.00
37132;BME280;23035;50.032;21.978;2023-11-19T22:48:08;65569.31;;;3.84;100.00
37132;BME280;23035;50.032;21.978;2023-11-19T22:53:12;65486.56;;;3.03;100.00
37132;BME280;23035;50.032;21.978;2023-11-19T22:58:17;65521.31;;;3.38;100.00
37132;BME280;23035;50.032;21.978;2023-11-19T23:03:23;65616.16;;;4.26;100.00
37132;BME280;23035;50.032;21.978;2023-11-19T23:08:27;65515.44;;;3.33;100.00
37132;BME280;23035;50.032;21.978;2023-11-19T23:13:32;65543.59;;;3.57;100.00
37132;BME280;23035;50.032;21.978;2023-11-19T23:18:39;65493.50;;;3.09;100.00
37132;BME280;23035;50.032;21.978;2023-11-19T23:23:44;65482.84;;;2.99;100.00
37132;BME280;23035;50.032;21.978;2023-11-19T23:28:49;65492.97;;;3.09;100.00
37132;BME280;23035;50.032;21.978;2023-11-19T23:34:06;65522.28;;;3.37;100.00
37132;BME280;23035;50.032;21.978;2023-11-19T23:39:10;65514.81;;;3.30;100.00
37132;BME280;23035;50.032;21.978;2023-11-19T23:44:15;65603.44;;;4.17;100.00
37132;BME280;23035;50.032;21.978;2023-11-19T23:49:21;65567.69;;;3.83;100.00
37132;BME280;23035;50.032;21.978;2023-11-19T23:54:26;65606.09;;;4.19;100.00
37132;BME280;23035;50.032;21.978;2023-11-19T23:59:30;65570.25;;;3.83;100.00
